createdAt,value
2019-03-29T00:03:22.781Z,52.63
2019-03-29T00:06:46.567Z,48.90
2019-03-29T00:10:10.532Z,54.77
2019-03-29T00:13:43.310Z,49.70
2019-03-29T00:17:07.098Z,43.50
2019-03-29T00:20:30.946Z,48.67
2019-03-29T00:24:06.240Z,45.30
2019-03-29T00:27:20.240Z,50.03
2019-03-29T00:30:44.142Z,43.53
2019-03-29T00:34:08.153Z,47.43
2019-03-29T00:37:32.321Z,66.03
2019-03-29T00:40:56.221Z,51.07
2019-03-29T00:44:20.039Z,43.40
2019-03-29T00:47:44.142Z,46.10
2019-03-29T00:51:08.008Z,44.30
2019-03-29T00:54:31.795Z,45.40
2019-03-29T00:57:56.202Z,50.43
2019-03-29T01:01:20.843Z,52.37
2019-03-29T01:04:44.610Z,74.97
2019-03-29T01:08:10.387Z,70.07
2019-03-29T01:11:34.278Z,53.13
2019-03-29T01:14:58.245Z,54.10
2019-03-29T01:18:21.992Z,50.23
2019-03-29T01:21:45.875Z,49.43
2019-03-29T01:25:09.843Z,51.07
2019-03-29T01:28:33.653Z,71.10
2019-03-29T01:31:57.346Z,71.60
2019-03-29T01:35:22.000Z,75.17
2019-03-29T01:38:45.782Z,53.70
2019-03-29T01:42:09.504Z,45.23
2019-03-29T01:45:33.385Z,44.63
2019-03-29T01:48:57.194Z,53.43
2019-03-29T01:52:20.967Z,64.23
2019-03-29T01:55:44.732Z,62.57
2019-03-29T01:59:08.474Z,57.13
2019-03-29T02:02:32.386Z,54.50
2019-03-29T02:05:56.145Z,58.10
2019-03-29T02:09:19.916Z,55.40
2019-03-29T02:12:43.876Z,69.03
2019-03-29T02:16:07.553Z,64.00
2019-03-29T02:19:34.262Z,58.90
2019-03-29T02:22:58.125Z,55.27
2019-03-29T02:26:22.046Z,58.93
2019-03-29T02:29:45.804Z,62.43
2019-03-29T02:33:09.679Z,72.63
2019-03-29T02:36:34.486Z,65.63
2019-03-29T02:39:58.866Z,64.87
2019-03-29T02:43:22.612Z,64.63
2019-03-29T02:46:46.735Z,65.67
2019-03-29T02:50:10.932Z,64.80
2019-03-29T02:53:34.925Z,65.17
2019-03-29T02:56:58.752Z,68.13
2019-03-29T03:00:22.576Z,64.90
2019-03-29T03:03:49.332Z,68.67
2019-03-29T03:07:13.239Z,62.50
2019-03-29T03:10:37.167Z,64.83
2019-03-29T03:14:01.059Z,71.63
2019-03-29T03:17:24.937Z,78.60
2019-03-29T03:20:48.959Z,81.90
2019-03-29T03:24:12.710Z,79.10
2019-03-29T03:27:37.014Z,76.33
2019-03-29T03:31:00.817Z,81.37
2019-03-29T03:34:24.871Z,97.33
2019-03-29T03:37:48.732Z,87.93
2019-03-29T03:41:12.645Z,88.63
2019-03-29T03:44:36.522Z,94.47
2019-03-29T03:48:00.199Z,82.60
2019-03-29T03:51:23.954Z,75.47
2019-03-29T03:54:47.842Z,72.17
2019-03-29T03:58:12.745Z,75.07
2019-03-29T04:01:36.492Z,76.53
2019-03-29T04:05:00.750Z,73.67
2019-03-29T04:08:25.010Z,68.87
2019-03-29T04:11:48.785Z,72.87
2019-03-29T04:15:12.676Z,74.60
2019-03-29T04:18:36.453Z,100.07
2019-03-29T04:22:00.301Z,83.17
2019-03-29T04:25:24.259Z,79.93
2019-03-29T04:29:03.327Z,104.63
2019-03-29T04:32:13.854Z,116.43
2019-03-29T04:35:38.101Z,108.83
2019-03-29T04:39:01.901Z,108.87
2019-03-29T04:42:25.742Z,106.17
2019-03-29T04:45:49.589Z,106.23
2019-03-29T04:49:13.439Z,99.87
2019-03-29T04:52:37.309Z,90.40
2019-03-29T04:56:01.084Z,90.77
2019-03-29T04:59:24.938Z,88.07
2019-03-29T05:02:48.783Z,86.60
2019-03-29T05:06:12.711Z,75.90
2019-03-29T05:09:36.568Z,78.13
2019-03-29T05:13:00.447Z,70.70
2019-03-29T05:16:24.373Z,71.40
2019-03-29T05:19:48.255Z,63.93
2019-03-29T05:23:12.179Z,78.27
2019-03-29T05:26:35.970Z,72.10
2019-03-29T05:30:00.095Z,68.53
2019-03-29T05:33:24.487Z,63.90
2019-03-29T05:36:48.301Z,68.40
2019-03-29T05:40:12.324Z,59.07
2019-03-29T05:43:35.982Z,56.47
2019-03-29T05:47:00.075Z,56.50
2019-03-29T05:50:23.886Z,62.20
2019-03-29T05:53:47.685Z,50.10
2019-03-29T05:57:11.848Z,47.83
2019-03-29T06:00:36.358Z,46.80
2019-03-29T06:04:00.159Z,50.37
2019-03-29T06:07:24.300Z,55.67
2019-03-29T06:10:49.487Z,48.30
2019-03-29T06:14:13.604Z,47.13
2019-03-29T06:17:48.005Z,41.30
2019-03-29T06:21:03.090Z,39.60
2019-03-29T06:24:26.972Z,38.63
2019-03-29T06:27:50.811Z,34.97
2019-03-29T06:31:14.541Z,35.70
2019-03-29T06:34:43.978Z,36.00
2019-03-29T06:38:10.215Z,35.27
2019-03-29T06:41:34.097Z,36.53
2019-03-29T06:44:58.114Z,35.93
2019-03-29T06:48:22.019Z,34.03
2019-03-29T06:51:46.623Z,33.97
2019-03-29T06:55:10.931Z,34.23
2019-03-29T06:58:35.026Z,35.17
2019-03-29T07:01:59.396Z,35.30
2019-03-29T07:05:23.820Z,34.97
2019-03-29T07:08:47.596Z,33.63
2019-03-29T07:12:11.740Z,33.60
2019-03-29T07:15:35.634Z,32.07
2019-03-29T07:18:59.500Z,31.37
2019-03-29T07:22:23.387Z,33.00
2019-03-29T07:25:47.244Z,32.57
2019-03-29T07:29:11.186Z,31.23
2019-03-29T07:32:35.023Z,30.40
2019-03-29T07:35:59.129Z,26.93
2019-03-29T07:39:23.297Z,29.10
2019-03-29T07:42:47.084Z,25.53
2019-03-29T07:46:10.943Z,26.83
2019-03-29T07:49:34.843Z,27.40
2019-03-29T07:52:58.749Z,24.67
2019-03-29T07:56:22.571Z,26.00
2019-03-29T07:59:46.470Z,24.97
2019-03-29T08:03:10.255Z,24.47
2019-03-29T08:06:34.176Z,24.80
2019-03-29T08:09:58.211Z,27.77
2019-03-29T08:13:22.029Z,25.10
2019-03-29T08:16:46.210Z,24.37
2019-03-29T08:20:37.549Z,24.17
2019-03-29T08:23:35.512Z,25.13
2019-03-29T08:26:59.383Z,23.43
2019-03-29T08:30:23.159Z,23.37
2019-03-29T08:33:47.578Z,24.17
2019-03-29T08:37:11.338Z,25.20
2019-03-29T08:40:35.961Z,22.80
2019-03-29T08:43:59.835Z,23.10
2019-03-29T08:47:23.684Z,22.83
2019-03-29T08:50:47.490Z,23.70
2019-03-29T08:54:11.433Z,26.17
2019-03-29T08:57:35.398Z,20.57
2019-03-29T09:00:59.319Z,22.13
2019-03-29T09:04:23.462Z,21.23
2019-03-29T09:07:47.489Z,22.33
2019-03-29T09:11:11.359Z,20.33
2019-03-29T09:14:35.149Z,23.60
2019-03-29T09:17:59.929Z,23.10
2019-03-29T09:21:24.079Z,24.43
2019-03-29T09:24:47.798Z,22.83
2019-03-29T09:28:11.574Z,17.30
2019-03-29T09:31:35.363Z,17.57
2019-03-29T09:34:59.391Z,18.27
2019-03-29T09:38:23.273Z,16.07
2019-03-29T09:41:47.031Z,14.67
2019-03-29T09:45:10.979Z,11.40
2019-03-29T09:48:34.899Z,11.10
2019-03-29T09:51:58.785Z,11.03
2019-03-29T09:55:22.624Z,9.70
2019-03-29T09:58:46.612Z,10.10
2019-03-29T10:02:10.499Z,11.00
2019-03-29T10:05:34.467Z,12.53
2019-03-29T10:08:58.262Z,12.80
2019-03-29T10:12:22.091Z,11.73
2019-03-29T10:15:45.878Z,12.17
2019-03-29T10:19:10.218Z,12.30
2019-03-29T10:22:34.082Z,11.73
2019-03-29T10:25:58.746Z,11.87
2019-03-29T10:29:22.841Z,11.63
2019-03-29T10:32:46.606Z,11.17
2019-03-29T10:36:10.604Z,13.83
2019-03-29T10:39:35.837Z,8.50
2019-03-29T10:42:59.820Z,8.37
2019-03-29T10:46:23.724Z,11.93
2019-03-29T10:49:47.596Z,9.00
2019-03-29T10:53:11.578Z,9.03
2019-03-29T10:56:35.682Z,9.30
2019-03-29T10:59:59.633Z,9.37
2019-03-29T11:03:23.516Z,10.10
2019-03-29T11:06:47.278Z,9.93
2019-03-29T11:10:16.845Z,11.07
2019-03-29T11:13:41.163Z,10.40
2019-03-29T11:17:05.355Z,10.53
2019-03-29T11:20:29.343Z,11.40
2019-03-29T11:23:53.281Z,11.00
2019-03-29T11:27:17.238Z,10.10
2019-03-29T11:30:43.099Z,10.33
2019-03-29T11:34:06.638Z,10.00
2019-03-29T11:37:30.578Z,12.83
2019-03-29T11:40:54.540Z,13.47
2019-03-29T11:44:18.357Z,14.00
2019-03-29T11:47:42.307Z,12.07
2019-03-29T11:51:18.658Z,13.47
2019-03-29T11:54:31.879Z,13.67
2019-03-29T11:57:56.096Z,10.50
2019-03-29T12:01:20.034Z,11.10
2019-03-29T12:04:43.957Z,11.87
2019-03-29T12:08:08.047Z,10.83
2019-03-29T12:11:32.234Z,12.67
2019-03-29T12:14:56.063Z,11.67
2019-03-29T12:18:19.811Z,12.23
2019-03-29T12:21:43.605Z,11.80
2019-03-29T12:25:07.698Z,12.97
2019-03-29T12:28:31.537Z,13.23
2019-03-29T12:31:55.274Z,14.83
2019-03-29T12:35:19.701Z,13.30
2019-03-29T12:38:43.455Z,12.17
2019-03-29T12:42:07.244Z,14.53
2019-03-29T12:45:31.124Z,13.27
2019-03-29T12:48:55.094Z,13.93
2019-03-29T12:52:19.014Z,13.07
2019-03-29T12:55:42.997Z,13.23
2019-03-29T12:59:06.871Z,13.27
2019-03-29T13:02:30.607Z,13.43
2019-03-29T13:05:54.845Z,14.30
2019-03-29T13:09:18.674Z,14.20
2019-03-29T13:12:42.531Z,14.20
2019-03-29T13:16:06.382Z,14.30
2019-03-29T13:19:30.328Z,14.47
2019-03-29T13:22:54.118Z,14.63
2019-03-29T13:26:18.027Z,16.17
2019-03-29T13:29:41.990Z,16.73
2019-03-29T13:33:05.992Z,16.30
2019-03-29T13:36:29.852Z,16.87
2019-03-29T13:39:54.675Z,15.77
2019-03-29T13:43:18.559Z,19.57
2019-03-29T13:46:42.273Z,18.40
2019-03-29T13:50:08.841Z,18.13
2019-03-29T13:53:32.582Z,18.73
2019-03-29T13:56:56.433Z,18.97
2019-03-29T14:00:22.358Z,27.97
2019-03-29T14:03:46.201Z,18.17
2019-03-29T14:07:10.126Z,20.73
2019-03-29T14:10:33.873Z,20.10
2019-03-29T14:13:57.779Z,23.93
2019-03-29T14:17:21.603Z,21.10
2019-03-29T14:20:45.541Z,20.90
2019-03-29T14:24:09.403Z,18.90
2019-03-29T14:27:33.203Z,18.30
2019-03-29T14:30:57.041Z,20.07
2019-03-29T14:34:21.486Z,17.90
2019-03-29T14:37:45.314Z,25.03
2019-03-29T14:41:09.203Z,45.83
2019-03-29T14:44:32.932Z,42.27
2019-03-29T14:47:57.090Z,32.77
2019-03-29T14:51:21.158Z,29.43
2019-03-29T14:54:45.070Z,25.17
2019-03-29T14:58:09.054Z,51.30
2019-03-29T15:01:33.058Z,25.07
2019-03-29T15:04:56.893Z,49.60
2019-03-29T15:08:20.963Z,34.37
2019-03-29T15:11:45.087Z,31.33
2019-03-29T15:15:09.137Z,35.13
2019-03-29T15:18:33.053Z,38.77
2019-03-29T15:21:57.071Z,30.57
2019-03-29T15:25:23.064Z,29.50
2019-03-29T15:28:46.957Z,29.80
2019-03-29T15:32:10.905Z,27.80
2019-03-29T15:35:34.764Z,78.97
2019-03-29T15:38:58.673Z,77.27
2019-03-29T15:42:22.455Z,41.67
2019-03-29T15:45:47.285Z,39.37
2019-03-29T15:49:11.131Z,32.37
2019-03-29T15:52:35.398Z,42.83
2019-03-29T15:55:59.533Z,30.97
2019-03-29T15:59:23.623Z,37.47
2019-03-29T16:02:47.483Z,31.00
2019-03-29T16:06:11.789Z,49.23
2019-03-29T16:09:35.669Z,34.93
2019-03-29T16:13:00.283Z,36.87
2019-03-29T16:16:24.369Z,43.23
2019-03-29T16:19:48.828Z,45.63
2019-03-29T16:23:12.684Z,50.23
2019-03-29T16:26:36.611Z,34.17
2019-03-29T16:30:00.474Z,50.30
2019-03-29T16:33:24.312Z,38.93
2019-03-29T16:36:48.173Z,39.73
2019-03-29T16:40:13.985Z,39.47
2019-03-29T16:43:37.747Z,38.23
2019-03-29T16:47:02.240Z,38.47
2019-03-29T16:50:26.227Z,41.17
2019-03-29T16:53:50.337Z,40.77
2019-03-29T16:57:15.073Z,35.90
2019-03-29T17:00:38.982Z,41.50
2019-03-29T17:04:02.963Z,44.10
2019-03-29T17:07:26.850Z,38.23
2019-03-29T17:10:59.658Z,35.30
2019-03-29T17:14:23.576Z,48.67
2019-03-29T17:17:47.388Z,34.03
2019-03-29T17:21:11.767Z,45.63
2019-03-29T17:24:36.206Z,39.57
2019-03-29T17:28:01.203Z,34.43
2019-03-29T17:31:25.032Z,35.93
2019-03-29T17:34:49.069Z,42.67
2019-03-29T17:38:13.178Z,38.57
2019-03-29T17:41:37.020Z,35.90
2019-03-29T17:45:01.136Z,43.00
2019-03-29T17:48:25.026Z,36.53
2019-03-29T17:51:49.834Z,58.03
2019-03-29T17:55:13.707Z,37.40
2019-03-29T17:58:37.674Z,36.00
2019-03-29T18:02:09.169Z,48.03
2019-03-29T18:05:26.985Z,41.30
2019-03-29T18:08:50.919Z,42.13
2019-03-29T18:12:14.823Z,37.83
2019-03-29T18:15:39.030Z,38.67
2019-03-29T18:19:03.197Z,46.80
2019-03-29T18:22:27.211Z,49.20
2019-03-29T18:25:51.401Z,243.27
2019-03-29T18:29:16.002Z,53.43
2019-03-29T18:32:40.102Z,47.40
2019-03-29T18:36:06.105Z,60.80
2019-03-29T18:39:30.862Z,56.83
2019-03-29T18:42:56.586Z,53.57
2019-03-29T18:46:20.373Z,232.67
2019-03-29T18:49:44.258Z,78.87
2019-03-29T18:53:08.349Z,52.87
2019-03-29T18:56:35.436Z,42.93
2019-03-29T18:59:59.306Z,40.70
2019-03-29T19:03:23.299Z,40.33
2019-03-29T19:06:47.175Z,99.63
2019-03-29T19:10:10.884Z,51.37
2019-03-29T19:13:34.802Z,53.80
2019-03-29T19:16:59.822Z,46.90
2019-03-29T19:20:27.875Z,39.40
2019-03-29T19:23:49.195Z,42.63
2019-03-29T19:27:13.092Z,55.47
2019-03-29T19:30:36.834Z,50.23
2019-03-29T19:34:00.741Z,51.10
2019-03-29T19:37:24.504Z,42.13
2019-03-29T19:40:48.400Z,43.13
2019-03-29T19:44:13.804Z,46.30
2019-03-29T19:47:38.366Z,43.33
2019-03-29T19:51:02.157Z,47.83
2019-03-29T19:54:26.058Z,45.63
2019-03-29T19:57:49.895Z,45.70
2019-03-29T20:01:13.699Z,67.07
2019-03-29T20:04:37.570Z,43.77
2019-03-29T20:08:01.401Z,44.57
2019-03-29T20:11:27.261Z,44.17
2019-03-29T20:14:51.092Z,45.37
2019-03-29T20:18:14.996Z,51.37
2019-03-29T20:21:40.906Z,56.03
2019-03-29T20:25:05.754Z,49.27
2019-03-29T20:28:29.638Z,46.80
2019-03-29T20:32:02.649Z,45.57
2019-03-29T20:35:26.512Z,47.07
2019-03-29T20:38:50.383Z,49.77
2019-03-29T20:42:14.324Z,51.83
2019-03-29T20:45:38.355Z,52.40
2019-03-29T20:49:02.234Z,47.93
2019-03-29T20:52:26.019Z,50.13
2019-03-29T20:55:51.813Z,50.10
2019-03-29T20:59:15.718Z,47.90
2019-03-29T21:02:39.627Z,48.43
2019-03-29T21:06:03.906Z,49.83
2019-03-29T21:09:27.779Z,50.33
2019-03-29T21:12:51.638Z,57.27
2019-03-29T21:16:15.406Z,54.83
2019-03-29T21:19:39.387Z,59.17
2019-03-29T21:23:03.294Z,55.50
2019-03-29T21:26:27.079Z,54.53
2019-03-29T21:29:50.878Z,50.90
2019-03-29T21:33:17.811Z,53.37
2019-03-29T21:36:43.753Z,55.30
2019-03-29T21:40:08.470Z,49.60
2019-03-29T21:43:32.223Z,58.77
2019-03-29T21:46:56.295Z,53.83
2019-03-29T21:50:20.077Z,52.60
2019-03-29T21:53:44.086Z,50.73
2019-03-29T21:57:12.036Z,44.87
2019-03-29T22:00:35.776Z,44.77
2019-03-29T22:04:00.035Z,42.07
2019-03-29T22:07:23.890Z,45.53
2019-03-29T22:10:47.756Z,39.63
2019-03-29T22:14:11.597Z,42.37
2019-03-29T22:17:35.421Z,41.47
2019-03-29T22:21:05.196Z,45.17
2019-03-29T22:24:29.008Z,43.40
2019-03-29T22:27:52.785Z,41.70
2019-03-29T22:31:16.699Z,41.63
2019-03-29T22:34:40.523Z,43.37
2019-03-29T22:38:04.401Z,41.83
2019-03-29T22:41:30.244Z,43.30
2019-03-29T22:44:54.178Z,46.63
2019-03-29T22:48:18.085Z,49.80
2019-03-29T22:51:41.890Z,49.87
2019-03-29T22:55:08.559Z,47.50
2019-03-29T22:58:32.423Z,50.13
2019-03-29T23:01:56.221Z,50.83
2019-03-29T23:05:20.037Z,47.03
2019-03-29T23:08:43.865Z,51.33
2019-03-29T23:12:07.681Z,51.93
2019-03-29T23:15:31.516Z,55.00
2019-03-29T23:19:06.255Z,53.37
2019-03-29T23:22:29.279Z,58.33
2019-03-29T23:25:53.104Z,56.37
2019-03-29T23:29:16.936Z,66.47
2019-03-29T23:32:42.639Z,59.57
2019-03-29T23:36:06.409Z,86.53
2019-03-29T23:39:30.248Z,72.43
2019-03-29T23:42:54.120Z,63.13
2019-03-29T23:46:18.316Z,63.10
2019-03-29T23:49:42.195Z,60.40
2019-03-29T23:53:05.998Z,61.13
2019-03-29T23:56:30.567Z,69.20
2019-03-29T23:59:54.446Z,62.27
